sensor_id;sensor_type;location;lat;lon;timestamp;P1;durP1;ratioP1;P2;durP2;ratioP2
42846;SDS011;75159;49.916;14.536;2024-01-15T00:03:47;12.05;;;4.97;;
42846;SDS011;75159;49.916;14.536;2024-01-15T00:14:08;11.02;;;5.03;;
42846;SDS011;75159;49.916;14.536;2024-01-15T00:24:29;12.93;;;5.85;;
42846;SDS011;75159;49.916;14.536;2024-01-15T00:34:50;12.60;;;5.32;;
42846;SDS011;75159;49.916;14.536;2024-01-15T00:45:11;11.48;;;5.68;;
42846;SDS011;75159;49.916;14.536;2024-01-15T00:55:32;11.35;;;5.57;;
42846;SDS011;75159;49.916;14.536;2024-01-15T01:05:53;14.15;;;5.13;;
42846;SDS011;75159;49.916;14.536;2024-01-15T01:16:14;11.40;;;5.05;;
42846;SDS011;75159;49.916;14.536;2024-01-15T01:26:35;18.33;;;7.32;;
42846;SDS011;75159;49.916;14.536;2024-01-15T01:36:56;12.50;;;5.97;;
42846;SDS011;75159;49.916;14.536;2024-01-15T01:47:16;16.40;;;5.40;;
42846;SDS011;75159;49.916;14.536;2024-01-15T01:57:38;8.48;;;3.78;;
42846;SDS011;75159;49.916;14.536;2024-01-15T02:07:59;15.80;;;6.30;;
42846;SDS011;75159;49.916;14.536;2024-01-15T02:18:20;10.75;;;4.93;;
42846;SDS011;75159;49.916;14.536;2024-01-15T02:28:41;13.73;;;6.38;;
42846;SDS011;75159;49.916;14.536;2024-01-15T02:39:05;10.82;;;6.80;;
42846;SDS011;75159;49.916;14.536;2024-01-15T02:49:25;14.75;;;6.32;;
42846;SDS011;75159;49.916;14.536;2024-01-15T02:59:46;12.70;;;6.70;;
42846;SDS011;75159;49.916;14.536;2024-01-15T03:10:07;11.27;;;6.30;;
42846;SDS011;75159;49.916;14.536;2024-01-15T03:20:29;14.90;;;6.65;;
42846;SDS011;75159;49.916;14.536;2024-01-15T03:30:49;18.52;;;6.13;;
42846;SDS011;75159;49.916;14.536;2024-01-15T03:41:11;13.80;;;6.28;;
42846;SDS011;75159;49.916;14.536;2024-01-15T03:51:32;17.92;;;7.55;;
42846;SDS011;75159;49.916;14.536;2024-01-15T04:01:53;15.20;;;7.82;;
42846;SDS011;75159;49.916;14.536;2024-01-15T04:12:14;15.65;;;6.65;;
42846;SDS011;75159;49.916;14.536;2024-01-15T04:22:35;11.77;;;6.20;;
42846;SDS011;75159;49.916;14.536;2024-01-15T04:32:56;8.60;;;4.72;;
42846;SDS011;75159;49.916;14.536;2024-01-15T04:43:17;14.00;;;7.07;;
42846;SDS011;75159;49.916;14.536;2024-01-15T04:53:37;15.88;;;7.57;;
42846;SDS011;75159;49.916;14.536;2024-01-15T05:03:58;18.35;;;7.28;;
42846;SDS011;75159;49.916;14.536;2024-01-15T05:14:20;18.35;;;6.15;;
42846;SDS011;75159;49.916;14.536;2024-01-15T05:24:41;13.18;;;6.65;;
42846;SDS011;75159;49.916;14.536;2024-01-15T05:35:02;10.30;;;5.53;;
42846;SDS011;75159;49.916;14.536;2024-01-15T05:45:23;14.68;;;6.85;;
42846;SDS011;75159;49.916;14.536;2024-01-15T05:55:46;15.77;;;7.35;;
42846;SDS011;75159;49.916;14.536;2024-01-15T06:06:08;14.82;;;5.53;;
42846;SDS011;75159;49.916;14.536;2024-01-15T06:16:30;11.90;;;5.93;;
42846;SDS011;75159;49.916;14.536;2024-01-15T06:26:51;15.88;;;7.25;;
42846;SDS011;75159;49.916;14.536;2024-01-15T06:37:12;14.93;;;7.38;;
42846;SDS011;75159;49.916;14.536;2024-01-15T06:47:33;19.77;;;8.02;;
42846;SDS011;75159;49.916;14.536;2024-01-15T06:57:54;11.25;;;6.70;;
42846;SDS011;75159;49.916;14.536;2024-01-15T07:08:14;10.93;;;4.90;;
42846;SDS011;75159;49.916;14.536;2024-01-15T07:18:36;12.50;;;6.50;;
42846;SDS011;75159;49.916;14.536;2024-01-15T07:28:57;15.93;;;6.88;;
42846;SDS011;75159;49.916;14.536;2024-01-15T07:39:18;13.15;;;6.38;;
42846;SDS011;75159;49.916;14.536;2024-01-15T07:49:39;12.52;;;5.75;;
42846;SDS011;75159;49.916;14.536;2024-01-15T08:00:00;16.45;;;7.03;;
42846;SDS011;75159;49.916;14.536;2024-01-15T08:10:23;11.95;;;5.78;;
42846;SDS011;75159;49.916;14.536;2024-01-15T08:20:44;14.13;;;6.18;;
42846;SDS011;75159;49.916;14.536;2024-01-15T08:31:05;14.18;;;5.53;;
42846;SDS011;75159;49.916;14.536;2024-01-15T08:41:26;14.15;;;6.40;;
42846;SDS011;75159;49.916;14.536;2024-01-15T08:51:47;14.25;;;5.40;;
42846;SDS011;75159;49.916;14.536;2024-01-15T09:02:08;13.40;;;5.13;;
42846;SDS011;75159;49.916;14.536;2024-01-15T09:12:29;11.48;;;5.32;;
42846;SDS011;75159;49.916;14.536;2024-01-15T09:22:50;9.68;;;4.55;;
42846;SDS011;75159;49.916;14.536;2024-01-15T09:33:11;9.13;;;4.13;;
42846;SDS011;75159;49.916;14.536;2024-01-15T09:43:32;6.03;;;3.33;;
42846;SDS011;75159;49.916;14.536;2024-01-15T09:53:54;6.68;;;3.78;;
42846;SDS011;75159;49.916;14.536;2024-01-15T10:04:16;6.78;;;3.70;;
42846;SDS011;75159;49.916;14.536;2024-01-15T10:14:37;7.55;;;3.58;;
42846;SDS011;75159;49.916;14.536;2024-01-15T10:24:58;4.32;;;2.45;;
42846;SDS011;75159;49.916;14.536;2024-01-15T10:35:21;7.63;;;3.67;;
42846;SDS011;75159;49.916;14.536;2024-01-15T10:45:42;5.10;;;3.55;;
42846;SDS011;75159;49.916;14.536;2024-01-15T10:56:04;7.70;;;3.60;;
42846;SDS011;75159;49.916;14.536;2024-01-15T11:06:26;7.45;;;3.65;;
42846;SDS011;75159;49.916;14.536;2024-01-15T11:16:53;5.82;;;3.25;;
42846;SDS011;75159;49.916;14.536;2024-01-15T11:27:39;5.05;;;2.97;;
42846;SDS011;75159;49.916;14.536;2024-01-15T11:38:02;8.60;;;4.00;;
42846;SDS011;75159;49.916;14.536;2024-01-15T11:48:23;4.28;;;2.03;;
42846;SDS011;75159;49.916;14.536;2024-01-15T11:58:56;7.07;;;3.38;;
42846;SDS011;75159;49.916;14.536;2024-01-15T12:09:19;7.10;;;3.40;;
42846;SDS011;75159;49.916;14.536;2024-01-15T12:19:40;2.75;;;1.98;;
42846;SDS011;75159;49.916;14.536;2024-01-15T12:30:01;6.30;;;2.78;;
42846;SDS011;75159;49.916;14.536;2024-01-15T12:40:22;5.78;;;3.35;;
42846;SDS011;75159;49.916;14.536;2024-01-15T12:50:44;5.50;;;2.70;;
42846;SDS011;75159;49.916;14.536;2024-01-15T13:01:06;5.38;;;2.67;;
42846;SDS011;75159;49.916;14.536;2024-01-15T13:11:27;5.90;;;2.72;;
42846;SDS011;75159;49.916;14.536;2024-01-15T13:21:48;5.85;;;3.50;;
42846;SDS011;75159;49.916;14.536;2024-01-15T13:32:11;4.40;;;2.25;;
42846;SDS011;75159;49.916;14.536;2024-01-15T13:42:38;7.15;;;2.75;;
42846;SDS011;75159;49.916;14.536;2024-01-15T13:52:59;6.32;;;2.65;;
42846;SDS011;75159;49.916;14.536;2024-01-15T14:03:20;7.68;;;3.03;;
42846;SDS011;75159;49.916;14.536;2024-01-15T14:13:41;4.43;;;2.13;;
42846;SDS011;75159;49.916;14.536;2024-01-15T14:24:02;5.97;;;2.40;;
42846;SDS011;75159;49.916;14.536;2024-01-15T14:34:25;5.18;;;2.15;;
42846;SDS011;75159;49.916;14.536;2024-01-15T14:44:47;4.10;;;2.30;;
42846;SDS011;75159;49.916;14.536;2024-01-15T14:55:08;5.22;;;2.28;;
42846;SDS011;75159;49.916;14.536;2024-01-15T15:05:29;6.50;;;2.97;;
42846;SDS011;75159;49.916;14.536;2024-01-15T15:15:51;9.85;;;3.13;;
42846;SDS011;75159;49.916;14.536;2024-01-15T15:26:14;4.63;;;2.42;;
42846;SDS011;75159;49.916;14.536;2024-01-15T15:36:35;4.97;;;2.38;;
42846;SDS011;75159;49.916;14.536;2024-01-15T15:46:56;6.15;;;2.53;;
42846;SDS011;75159;49.916;14.536;2024-01-15T15:57:17;3.20;;;1.33;;
42846;SDS011;75159;49.916;14.536;2024-01-15T16:07:39;5.10;;;2.70;;
42846;SDS011;75159;49.916;14.536;2024-01-15T16:18:01;4.40;;;2.30;;
42846;SDS011;75159;49.916;14.536;2024-01-15T16:28:42;4.65;;;2.35;;
42846;SDS011;75159;49.916;14.536;2024-01-15T16:39:03;5.18;;;3.22;;
42846;SDS011;75159;49.916;14.536;2024-01-15T16:49:24;5.72;;;3.05;;
42846;SDS011;75159;49.916;14.536;2024-01-15T16:59:45;5.00;;;2.90;;
42846;SDS011;75159;49.916;14.536;2024-01-15T17:10:07;3.88;;;2.92;;
42846;SDS011;75159;49.916;14.536;2024-01-15T17:20:28;6.88;;;3.47;;
42846;SDS011;75159;49.916;14.536;2024-01-15T17:30:49;4.68;;;2.47;;
42846;SDS011;75159;49.916;14.536;2024-01-15T17:41:11;4.40;;;2.80;;
42846;SDS011;75159;49.916;14.536;2024-01-15T17:51:33;6.32;;;3.10;;
42846;SDS011;75159;49.916;14.536;2024-01-15T18:01:55;6.22;;;3.67;;
42846;SDS011;75159;49.916;14.536;2024-01-15T18:12:16;6.60;;;3.45;;
42846;SDS011;75159;49.916;14.536;2024-01-15T18:22:37;3.92;;;2.28;;
42846;SDS011;75159;49.916;14.536;2024-01-15T18:32:58;5.47;;;3.22;;
42846;SDS011;75159;49.916;14.536;2024-01-15T18:43:20;2.63;;;2.05;;
42846;SDS011;75159;49.916;14.536;2024-01-15T18:53:42;4.90;;;3.25;;
42846;SDS011;75159;49.916;14.536;2024-01-15T19:04:03;6.32;;;3.55;;
42846;SDS011;75159;49.916;14.536;2024-01-15T19:14:24;4.40;;;2.97;;
42846;SDS011;75159;49.916;14.536;2024-01-15T19:24:45;5.18;;;2.72;;
42846;SDS011;75159;49.916;14.536;2024-01-15T19:35:09;6.50;;;3.28;;
42846;SDS011;75159;49.916;14.536;2024-01-15T19:45:30;3.58;;;2.58;;
42846;SDS011;75159;49.916;14.536;2024-01-15T19:55:51;2.47;;;1.98;;
42846;SDS011;75159;49.916;14.536;2024-01-15T20:06:13;4.50;;;2.92;;
42846;SDS011;75159;49.916;14.536;2024-01-15T20:16:35;3.95;;;2.60;;
42846;SDS011;75159;49.916;14.536;2024-01-15T20:26:56;4.95;;;3.42;;
42846;SDS011;75159;49.916;14.536;2024-01-15T20:37:20;4.82;;;2.45;;
42846;SDS011;75159;49.916;14.536;2024-01-15T20:47:41;5.20;;;2.28;;
42846;SDS011;75159;49.916;14.536;2024-01-15T20:58:02;5.78;;;2.70;;
42846;SDS011;75159;49.916;14.536;2024-01-15T21:08:25;3.65;;;2.10;;
42846;SDS011;75159;49.916;14.536;2024-01-15T21:18:46;3.22;;;1.85;;
42846;SDS011;75159;49.916;14.536;2024-01-15T21:29:08;1.73;;;1.50;;
42846;SDS011;75159;49.916;14.536;2024-01-15T21:39:29;4.35;;;2.45;;
42846;SDS011;75159;49.916;14.536;2024-01-15T21:49:50;4.65;;;2.78;;
42846;SDS011;75159;49.916;14.536;2024-01-15T22:00:11;4.63;;;2.65;;
42846;SDS011;75159;49.916;14.536;2024-01-15T22:10:36;3.53;;;2.13;;
42846;SDS011;75159;49.916;14.536;2024-01-15T22:20:56;6.75;;;2.80;;
42846;SDS011;75159;49.916;14.536;2024-01-15T22:31:20;4.35;;;2.20;;
42846;SDS011;75159;49.916;14.536;2024-01-15T22:41:41;5.88;;;3.55;;
42846;SDS011;75159;49.916;14.536;2024-01-15T22:52:02;5.18;;;2.78;;
42846;SDS011;75159;49.916;14.536;2024-01-15T23:02:23;5.05;;;3.17;;
42846;SDS011;75159;49.916;14.536;2024-01-15T23:12:44;5.57;;;3.25;;
42846;SDS011;75159;49.916;14.536;2024-01-15T23:23:06;6.00;;;2.78;;
42846;SDS011;75159;49.916;14.536;2024-01-15T23:33:27;4.47;;;2.40;;
42846;SDS011;75159;49.916;14.536;2024-01-15T23:43:48;4.47;;;2.38;;
42846;SDS011;75159;49.916;14.536;2024-01-15T23:54:10;3.50;;;2.50;;
